DLH168 EDDL-LOWW
Flight info
| Callsign | DLH168 |
|---|---|
| Flight time | 1h 9m |
| Altitude | 35000 |
| Route | DODEN1T DODEN Y853 BOMBI DCT ESATI DCT BARSU DCT EKSOS DCT LULAR DCT RUDAP DCT BUDEX BUDEX2W |
| Aircraft | A20N/M-SDE2E3FGHIRWXY/LB1 |
Departure
| Time | 2026-05-04 18:25 |
|---|---|
| Airport | Düsseldorf Airport (EDDL) |
Arrival
| Time | 2026-05-04 19:34 |
|---|---|
| Airport | Vienna International Airport (LOWW) |
| Time | Latitude | Longitude | Altitude | Speed | Heading |
|---|---|---|---|---|---|
| 2026-05-04 17:59 | 51.28106 | 6.76717 | 125 ft | 0 kts | 277° |
| 2026-05-04 18:14 | 51.28106 | 6.76716 | 127 ft | 0 kts | 277° |
| 2026-05-04 18:15 | 51.28102 | 6.76766 | 125 ft | 3 kts | 277° |
| 2026-05-04 18:15 | 51.28088 | 6.76806 | 125 ft | 1 kts | 347° |
| 2026-05-04 18:15 | 51.28083 | 6.76808 | 124 ft | 0 kts | 1° |
| 2026-05-04 18:19 | 51.28108 | 6.76813 | 125 ft | 5 kts | 11° |
| 2026-05-04 18:19 | 51.28154 | 6.76829 | 126 ft | 9 kts | 11° |
| 2026-05-04 18:19 | 51.28229 | 6.76846 | 127 ft | 13 kts | 7° |
| 2026-05-04 18:20 | 51.28327 | 6.76865 | 127 ft | 16 kts | 7° |
| 2026-05-04 18:20 | 51.28422 | 6.76807 | 125 ft | 15 kts | 321° |
| 2026-05-04 18:20 | 51.28506 | 6.76815 | 128 ft | 13 kts | 41° |
| 2026-05-04 18:20 | 51.28566 | 6.76932 | 126 ft | 15 kts | 51° |
| 2026-05-04 18:21 | 51.28630 | 6.77064 | 133 ft | 15 kts | 54° |
| 2026-05-04 18:21 | 51.28698 | 6.77214 | 128 ft | 18 kts | 54° |
| 2026-05-04 18:21 | 51.28779 | 6.77380 | 127 ft | 20 kts | 52° |
| 2026-05-04 18:21 | 51.28869 | 6.77570 | 129 ft | 22 kts | 53° |
| 2026-05-04 18:22 | 51.28961 | 6.77766 | 130 ft | 23 kts | 52° |
| 2026-05-04 18:22 | 51.29057 | 6.77963 | 134 ft | 22 kts | 52° |
| 2026-05-04 18:22 | 51.29153 | 6.78169 | 134 ft | 24 kts | 54° |
| 2026-05-04 18:22 | 51.29255 | 6.78382 | 132 ft | 25 kts | 53° |
| 2026-05-04 18:23 | 51.29356 | 6.78562 | 133 ft | 9 kts | 25° |
| 2026-05-04 18:23 | 51.29432 | 6.78570 | 132 ft | 12 kts | 356° |
| 2026-05-04 18:23 | 51.29512 | 6.78530 | 135 ft | 12 kts | 311° |
| 2026-05-04 18:23 | 51.29504 | 6.78441 | 132 ft | 0 kts | 230° |
| 2026-05-04 18:24 | 51.29487 | 6.78407 | 132 ft | 19 kts | 232° |
| 2026-05-04 18:24 | 51.29253 | 6.77918 | 134 ft | 91 kts | 233° |
| 2026-05-04 18:24 | 51.28745 | 6.76855 | 132 ft | 146 kts | 231° |
| 2026-05-04 18:24 | 51.28096 | 6.75487 | 577 ft | 153 kts | 230° |
| 2026-05-04 18:25 | 51.27474 | 6.74097 | 1222 ft | 154 kts | 230° |
| 2026-05-04 18:25 | 51.26817 | 6.72718 | 1824 ft | 158 kts | 230° |
| 2026-05-04 18:25 | 51.26111 | 6.71245 | 2236 ft | 178 kts | 231° |
| 2026-05-04 18:25 | 51.25325 | 6.69560 | 2668 ft | 200 kts | 232° |
| 2026-05-04 18:26 | 51.24446 | 6.67643 | 3018 ft | 229 kts | 232° |
| 2026-05-04 18:26 | 51.23423 | 6.65504 | 3408 ft | 255 kts | 225° |
| 2026-05-04 18:26 | 51.21913 | 6.63991 | 4314 ft | 259 kts | 196° |
| 2026-05-04 18:26 | 51.20128 | 6.63774 | 5277 ft | 263 kts | 175° |
| 2026-05-04 18:27 | 51.18310 | 6.64121 | 6202 ft | 265 kts | 175° |
| 2026-05-04 18:27 | 51.16474 | 6.64413 | 7146 ft | 268 kts | 170° |
| 2026-05-04 18:27 | 51.14736 | 6.65536 | 7979 ft | 275 kts | 145° |
| 2026-05-04 18:27 | 51.13453 | 6.67807 | 8591 ft | 282 kts | 123° |
| 2026-05-04 18:28 | 51.12874 | 6.70673 | 8681 ft | 289 kts | 97° |
| 2026-05-04 18:28 | 51.12939 | 6.73918 | 9063 ft | 296 kts | 88° |
| 2026-05-04 18:28 | 51.13169 | 6.77176 | 10003 ft | 296 kts | 86° |
| 2026-05-04 18:28 | 51.13395 | 6.80504 | 10588 ft | 312 kts | 88° |
| 2026-05-04 18:29 | 51.13586 | 6.84061 | 10893 ft | 334 kts | 88° |
| 2026-05-04 18:29 | 51.13750 | 6.87843 | 11421 ft | 345 kts | 89° |
| 2026-05-04 18:29 | 51.13898 | 6.91685 | 12221 ft | 349 kts | 89° |
| 2026-05-04 18:29 | 51.14042 | 6.95583 | 13011 ft | 353 kts | 89° |
| 2026-05-04 18:30 | 51.14322 | 7.03430 | 14441 ft | 361 kts | 89° |
| 2026-05-04 18:30 | 51.14463 | 7.07448 | 15130 ft | 365 kts | 89° |
| 2026-05-04 18:30 | 51.14605 | 7.11510 | 15790 ft | 369 kts | 89° |
| 2026-05-04 18:31 | 51.14748 | 7.15620 | 16417 ft | 375 kts | 89° |
| 2026-05-04 18:31 | 51.14891 | 7.19794 | 17047 ft | 380 kts | 89° |
| 2026-05-04 18:31 | 51.15034 | 7.24008 | 17715 ft | 383 kts | 89° |
| 2026-05-04 18:31 | 51.15178 | 7.28269 | 18349 ft | 387 kts | 89° |
| 2026-05-04 18:32 | 51.15160 | 7.32563 | 18884 ft | 388 kts | 101° |
| 2026-05-04 18:32 | 51.14420 | 7.36681 | 19427 ft | 386 kts | 118° |
| 2026-05-04 18:32 | 51.12987 | 7.40283 | 19956 ft | 386 kts | 129° |
| 2026-05-04 18:32 | 51.11349 | 7.43694 | 20493 ft | 390 kts | 130° |
| 2026-05-04 18:33 | 51.09665 | 7.47120 | 21045 ft | 394 kts | 131° |
| 2026-05-04 18:33 | 51.07969 | 7.50561 | 21568 ft | 398 kts | 131° |
| 2026-05-04 18:33 | 51.06255 | 7.54051 | 22116 ft | 402 kts | 131° |
| 2026-05-04 18:33 | 51.04531 | 7.57573 | 22641 ft | 406 kts | 131° |
| 2026-05-04 18:34 | 51.02791 | 7.61131 | 23046 ft | 412 kts | 131° |
| 2026-05-04 18:34 | 51.01021 | 7.64749 | 23578 ft | 415 kts | 131° |
| 2026-05-04 18:34 | 50.99845 | 7.67151 | 23712 ft | 417 kts | 131° |
| 2026-05-04 18:35 | 50.98297 | 7.70212 | 23777 ft | 415 kts | 135° |
| 2026-05-04 18:35 | 50.96282 | 7.73420 | 24058 ft | 415 kts | 142° |
| 2026-05-04 18:35 | 50.94023 | 7.76223 | 24623 ft | 411 kts | 149° |
| 2026-05-04 18:35 | 50.91607 | 7.78647 | 25105 ft | 412 kts | 152° |
| 2026-05-04 18:36 | 50.89164 | 7.81041 | 25568 ft | 414 kts | 152° |
| 2026-05-04 18:36 | 50.86705 | 7.83456 | 25747 ft | 415 kts | 152° |
| 2026-05-04 18:36 | 50.84252 | 7.85866 | 25847 ft | 415 kts | 152° |
| 2026-05-04 18:36 | 50.81797 | 7.88276 | 25946 ft | 416 kts | 152° |
| 2026-05-04 18:37 | 50.79332 | 7.90694 | 25988 ft | 416 kts | 152° |
| 2026-05-04 18:37 | 50.76865 | 7.93109 | 26098 ft | 419 kts | 152° |
| 2026-05-04 18:37 | 50.74397 | 7.95523 | 26612 ft | 418 kts | 153° |
| 2026-05-04 18:37 | 50.72114 | 7.97753 | 27020 ft | 420 kts | 153° |
| 2026-05-04 18:38 | 50.69640 | 8.00164 | 27305 ft | 424 kts | 153° |
| 2026-05-04 18:38 | 50.67119 | 8.02619 | 27725 ft | 426 kts | 153° |
| 2026-05-04 18:38 | 50.64592 | 8.05079 | 28132 ft | 428 kts | 153° |
| 2026-05-04 18:38 | 50.62050 | 8.07551 | 28494 ft | 430 kts | 153° |
| 2026-05-04 18:39 | 50.59557 | 8.10207 | 28846 ft | 435 kts | 147° |
| 2026-05-04 18:39 | 50.57223 | 8.13240 | 29324 ft | 436 kts | 144° |
| 2026-05-04 18:39 | 50.54888 | 8.16327 | 29658 ft | 439 kts | 144° |
| 2026-05-04 18:39 | 50.52541 | 8.19416 | 29960 ft | 441 kts | 145° |
| 2026-05-04 18:40 | 50.50215 | 8.22468 | 30265 ft | 442 kts | 145° |
| 2026-05-04 18:40 | 50.47846 | 8.25567 | 30564 ft | 444 kts | 145° |
| 2026-05-04 18:40 | 50.45469 | 8.28672 | 30852 ft | 446 kts | 145° |
| 2026-05-04 18:40 | 50.43080 | 8.31787 | 31167 ft | 447 kts | 145° |
| 2026-05-04 18:41 | 50.40688 | 8.34902 | 31515 ft | 446 kts | 145° |
| 2026-05-04 18:41 | 50.38292 | 8.38015 | 31777 ft | 448 kts | 145° |
| 2026-05-04 18:41 | 50.35895 | 8.41128 | 32135 ft | 448 kts | 145° |
| 2026-05-04 18:41 | 50.33500 | 8.44235 | 32524 ft | 446 kts | 145° |
| 2026-05-04 18:42 | 50.31122 | 8.47317 | 32995 ft | 443 kts | 145° |
| 2026-05-04 18:42 | 50.28751 | 8.50385 | 33343 ft | 442 kts | 145° |
| 2026-05-04 18:42 | 50.26384 | 8.53442 | 33681 ft | 441 kts | 146° |
| 2026-05-04 18:42 | 50.24020 | 8.56492 | 34015 ft | 440 kts | 146° |
| 2026-05-04 18:43 | 50.21659 | 8.59533 | 34284 ft | 439 kts | 146° |
| 2026-05-04 18:43 | 50.19300 | 8.62568 | 34536 ft | 439 kts | 146° |
| 2026-05-04 18:43 | 50.16944 | 8.65593 | 34781 ft | 439 kts | 146° |
| 2026-05-04 18:43 | 50.14586 | 8.68618 | 34910 ft | 439 kts | 146° |
| 2026-05-04 18:44 | 50.12225 | 8.71643 | 34965 ft | 442 kts | 146° |
| 2026-05-04 18:44 | 50.08067 | 8.78936 | 34960 ft | 463 kts | 124° |
| 2026-05-04 18:44 | 50.06713 | 8.83529 | 34967 ft | 470 kts | 112° |
| 2026-05-04 18:45 | 50.05972 | 8.88515 | 34968 ft | 477 kts | 100° |
| 2026-05-04 18:45 | 50.05972 | 8.98905 | 34969 ft | 482 kts | 91° |
| 2026-05-04 18:46 | 50.06162 | 9.09339 | 34970 ft | 482 kts | 92° |
| 2026-05-04 18:46 | 50.06123 | 9.19745 | 34951 ft | 479 kts | 99° |
| 2026-05-04 18:47 | 50.05068 | 9.29936 | 34960 ft | 477 kts | 104° |
| 2026-05-04 18:47 | 50.03917 | 9.40058 | 34965 ft | 478 kts | 103° |
| 2026-05-04 18:48 | 50.02750 | 9.50255 | 34979 ft | 478 kts | 104° |
| 2026-05-04 18:48 | 50.01573 | 9.60436 | 34978 ft | 478 kts | 104° |
| 2026-05-04 18:49 | 50.00386 | 9.70609 | 34970 ft | 477 kts | 104° |
| 2026-05-04 18:49 | 49.99199 | 9.80699 | 34966 ft | 477 kts | 104° |
| 2026-05-04 18:50 | 49.97998 | 9.90835 | 34964 ft | 477 kts | 104° |
| 2026-05-04 18:50 | 49.96789 | 10.00956 | 34964 ft | 477 kts | 104° |
| 2026-05-04 18:51 | 49.95569 | 10.11084 | 34944 ft | 477 kts | 104° |
| 2026-05-04 18:51 | 49.94342 | 10.21201 | 34947 ft | 477 kts | 104° |
| 2026-05-04 18:52 | 49.93104 | 10.31331 | 34951 ft | 478 kts | 104° |
| 2026-05-04 18:52 | 49.91533 | 10.41308 | 34959 ft | 474 kts | 113° |
| 2026-05-04 18:53 | 49.89110 | 10.50780 | 34941 ft | 472 kts | 115° |
| 2026-05-04 18:53 | 49.87072 | 10.58650 | 34950 ft | 473 kts | 115° |
| 2026-05-04 18:54 | 49.84617 | 10.68116 | 34949 ft | 473 kts | 115° |
| 2026-05-04 18:54 | 49.81752 | 10.79102 | 34948 ft | 473 kts | 115° |
| 2026-05-04 18:55 | 49.79677 | 10.87025 | 34953 ft | 474 kts | 115° |
| 2026-05-04 18:55 | 49.75976 | 11.01084 | 34966 ft | 471 kts | 115° |
| 2026-05-04 18:56 | 49.73500 | 11.10443 | 34954 ft | 470 kts | 115° |
| 2026-05-04 18:56 | 49.71014 | 11.19801 | 34949 ft | 470 kts | 115° |
| 2026-05-04 18:57 | 49.68527 | 11.29125 | 34947 ft | 469 kts | 115° |
| 2026-05-04 18:57 | 49.66033 | 11.38439 | 34939 ft | 469 kts | 116° |
| 2026-05-04 18:58 | 49.63897 | 11.47982 | 34948 ft | 471 kts | 110° |
| 2026-05-04 18:58 | 49.61914 | 11.57611 | 34958 ft | 471 kts | 111° |
| 2026-05-04 18:59 | 49.59913 | 11.67233 | 34976 ft | 470 kts | 111° |
| 2026-05-04 18:59 | 49.57904 | 11.76823 | 34963 ft | 470 kts | 111° |
| 2026-05-04 19:00 | 49.55900 | 11.86340 | 34970 ft | 470 kts | 111° |
| 2026-05-04 19:00 | 49.53874 | 11.95915 | 34970 ft | 470 kts | 111° |
| 2026-05-04 19:01 | 49.51836 | 12.05501 | 34966 ft | 471 kts | 111° |
| 2026-05-04 19:01 | 49.49790 | 12.15083 | 34959 ft | 471 kts | 111° |
| 2026-05-04 19:02 | 49.47737 | 12.24653 | 34930 ft | 471 kts | 111° |
| 2026-05-04 19:02 | 49.45674 | 12.34227 | 34934 ft | 472 kts | 111° |
| 2026-05-04 19:03 | 49.43601 | 12.43796 | 34942 ft | 472 kts | 111° |
| 2026-05-04 19:03 | 49.41520 | 12.53362 | 34944 ft | 472 kts | 111° |
| 2026-05-04 19:04 | 49.39431 | 12.62917 | 34940 ft | 472 kts | 111° |
| 2026-05-04 19:04 | 49.37334 | 12.72469 | 34941 ft | 472 kts | 111° |
| 2026-05-04 19:05 | 49.35164 | 12.81981 | 34942 ft | 472 kts | 113° |
| 2026-05-04 19:05 | 49.32829 | 12.91382 | 34940 ft | 472 kts | 114° |
| 2026-05-04 19:06 | 49.30514 | 13.00721 | 34941 ft | 471 kts | 113° |
| 2026-05-04 19:06 | 49.28195 | 13.10119 | 34937 ft | 471 kts | 113° |
| 2026-05-04 19:07 | 49.25872 | 13.19514 | 34943 ft | 471 kts | 113° |
| 2026-05-04 19:07 | 49.23539 | 13.28879 | 34939 ft | 471 kts | 114° |
| 2026-05-04 19:08 | 49.21080 | 13.38052 | 34932 ft | 453 kts | 115° |
| 2026-05-04 19:08 | 49.19889 | 13.42425 | 34935 ft | 440 kts | 115° |
| 2026-05-04 19:08 | 49.18709 | 13.46761 | 34943 ft | 445 kts | 115° |
| 2026-05-04 19:09 | 49.16320 | 13.55554 | 34938 ft | 447 kts | 115° |
| 2026-05-04 19:09 | 49.13944 | 13.64312 | 34939 ft | 447 kts | 115° |
| 2026-05-04 19:10 | 49.11558 | 13.73076 | 34939 ft | 446 kts | 115° |
| 2026-05-04 19:10 | 49.09183 | 13.81765 | 34930 ft | 447 kts | 115° |
| 2026-05-04 19:11 | 49.06778 | 13.90527 | 34937 ft | 448 kts | 115° |
| 2026-05-04 19:11 | 49.05579 | 13.94890 | 34790 ft | 445 kts | 115° |
| 2026-05-04 19:11 | 49.04381 | 13.99241 | 34353 ft | 443 kts | 115° |
| 2026-05-04 19:12 | 49.03188 | 14.03561 | 33751 ft | 442 kts | 116° |
| 2026-05-04 19:12 | 49.00787 | 14.12225 | 32156 ft | 446 kts | 115° |
| 2026-05-04 19:12 | 48.99576 | 14.16582 | 31546 ft | 443 kts | 115° |
| 2026-05-04 19:13 | 48.98379 | 14.20889 | 31425 ft | 446 kts | 115° |
| 2026-05-04 19:13 | 48.97002 | 14.25176 | 31317 ft | 454 kts | 121° |
| 2026-05-04 19:13 | 48.95477 | 14.29394 | 31207 ft | 455 kts | 121° |
| 2026-05-04 19:13 | 48.93963 | 14.33607 | 31099 ft | 453 kts | 121° |
| 2026-05-04 19:14 | 48.92543 | 14.37903 | 30986 ft | 456 kts | 112° |
| 2026-05-04 19:14 | 48.90775 | 14.47198 | 30776 ft | 457 kts | 105° |
| 2026-05-04 19:14 | 48.89999 | 14.51817 | 30195 ft | 458 kts | 106° |
| 2026-05-04 19:15 | 48.89179 | 14.56464 | 29217 ft | 463 kts | 107° |
| 2026-05-04 19:15 | 48.88304 | 14.61197 | 28243 ft | 466 kts | 107° |
| 2026-05-04 19:15 | 48.87410 | 14.65897 | 27591 ft | 461 kts | 107° |
| 2026-05-04 19:15 | 48.86513 | 14.70551 | 26939 ft | 456 kts | 107° |
| 2026-05-04 19:16 | 48.85620 | 14.75155 | 26299 ft | 452 kts | 108° |
| 2026-05-04 19:16 | 48.84732 | 14.79720 | 25676 ft | 448 kts | 108° |
| 2026-05-04 19:16 | 48.83849 | 14.84245 | 25054 ft | 445 kts | 108° |
| 2026-05-04 19:16 | 48.82974 | 14.88727 | 24453 ft | 441 kts | 108° |
| 2026-05-04 19:17 | 48.82103 | 14.93175 | 23858 ft | 437 kts | 108° |
| 2026-05-04 19:17 | 48.81238 | 14.97585 | 23222 ft | 434 kts | 108° |
| 2026-05-04 19:17 | 48.80391 | 15.01892 | 22627 ft | 429 kts | 108° |
| 2026-05-04 19:17 | 48.79542 | 15.06207 | 22011 ft | 425 kts | 108° |
| 2026-05-04 19:18 | 48.78699 | 15.10475 | 21406 ft | 420 kts | 108° |
| 2026-05-04 19:18 | 48.77864 | 15.14696 | 20809 ft | 416 kts | 108° |
| 2026-05-04 19:18 | 48.77034 | 15.18878 | 20218 ft | 412 kts | 108° |
| 2026-05-04 19:18 | 48.76212 | 15.23014 | 19613 ft | 408 kts | 108° |
| 2026-05-04 19:19 | 48.75395 | 15.27115 | 19050 ft | 405 kts | 108° |
| 2026-05-04 19:19 | 48.74583 | 15.31182 | 18500 ft | 401 kts | 108° |
| 2026-05-04 19:19 | 48.73777 | 15.35209 | 17911 ft | 397 kts | 108° |
| 2026-05-04 19:19 | 48.72978 | 15.39196 | 17313 ft | 393 kts | 108° |
| 2026-05-04 19:20 | 48.72197 | 15.43089 | 16715 ft | 389 kts | 108° |
| 2026-05-04 19:20 | 48.71412 | 15.46988 | 16136 ft | 385 kts | 108° |
| 2026-05-04 19:20 | 48.70635 | 15.50843 | 15552 ft | 381 kts | 109° |
| 2026-05-04 19:20 | 48.69863 | 15.54664 | 14974 ft | 378 kts | 109° |
| 2026-05-04 19:21 | 48.69096 | 15.58456 | 14429 ft | 375 kts | 109° |
| 2026-05-04 19:21 | 48.68343 | 15.62170 | 14272 ft | 367 kts | 109° |
| 2026-05-04 19:21 | 48.67580 | 15.65916 | 14178 ft | 375 kts | 109° |
| 2026-05-04 19:21 | 48.66814 | 15.69680 | 14074 ft | 372 kts | 109° |
| 2026-05-04 19:22 | 48.66054 | 15.73412 | 13963 ft | 371 kts | 109° |
| 2026-05-04 19:22 | 48.65293 | 15.77136 | 13653 ft | 369 kts | 109° |
| 2026-05-04 19:22 | 48.64492 | 15.80802 | 13137 ft | 365 kts | 115° |
| 2026-05-04 19:22 | 48.63432 | 15.84269 | 12506 ft | 363 kts | 117° |
| 2026-05-04 19:23 | 48.62371 | 15.87717 | 11930 ft | 360 kts | 117° |
| 2026-05-04 19:23 | 48.61321 | 15.91086 | 11382 ft | 357 kts | 117° |
| 2026-05-04 19:23 | 48.60250 | 15.94466 | 10832 ft | 355 kts | 117° |
| 2026-05-04 19:23 | 48.59177 | 15.97809 | 10311 ft | 352 kts | 117° |
| 2026-05-04 19:24 | 48.58109 | 16.01120 | 9773 ft | 350 kts | 117° |
| 2026-05-04 19:24 | 48.57044 | 16.04411 | 9225 ft | 347 kts | 117° |
| 2026-05-04 19:24 | 48.55986 | 16.07670 | 8689 ft | 343 kts | 117° |
| 2026-05-04 19:24 | 48.54937 | 16.10901 | 8156 ft | 340 kts | 117° |
| 2026-05-04 19:25 | 48.53899 | 16.14095 | 7631 ft | 338 kts | 117° |
| 2026-05-04 19:25 | 48.52871 | 16.17256 | 7287 ft | 330 kts | 117° |
| 2026-05-04 19:25 | 48.51856 | 16.20376 | 7190 ft | 337 kts | 118° |
| 2026-05-04 19:25 | 48.50834 | 16.23505 | 7100 ft | 335 kts | 118° |
| 2026-05-04 19:26 | 48.49807 | 16.26647 | 6999 ft | 333 kts | 117° |
| 2026-05-04 19:26 | 48.48782 | 16.29781 | 6987 ft | 334 kts | 117° |
| 2026-05-04 19:26 | 48.47755 | 16.32919 | 6987 ft | 333 kts | 118° |
| 2026-05-04 19:26 | 48.46727 | 16.36058 | 6986 ft | 334 kts | 117° |
| 2026-05-04 19:27 | 48.45696 | 16.39197 | 6989 ft | 334 kts | 117° |
| 2026-05-04 19:27 | 48.44582 | 16.42246 | 6888 ft | 328 kts | 128° |
| 2026-05-04 19:27 | 48.42949 | 16.44468 | 6752 ft | 307 kts | 152° |
| 2026-05-04 19:27 | 48.41020 | 16.45589 | 6445 ft | 291 kts | 166° |
| 2026-05-04 19:28 | 48.39079 | 16.46286 | 6037 ft | 281 kts | 166° |
| 2026-05-04 19:28 | 48.37233 | 16.47073 | 5661 ft | 270 kts | 165° |
| 2026-05-04 19:28 | 48.35459 | 16.47827 | 5306 ft | 260 kts | 166° |
| 2026-05-04 19:28 | 48.33753 | 16.48556 | 4971 ft | 250 kts | 166° |
| 2026-05-04 19:29 | 48.32110 | 16.49258 | 4644 ft | 241 kts | 166° |
| 2026-05-04 19:29 | 48.30525 | 16.49935 | 4327 ft | 232 kts | 166° |
| 2026-05-04 19:29 | 48.29027 | 16.50574 | 4040 ft | 221 kts | 166° |
| 2026-05-04 19:29 | 48.27579 | 16.51193 | 3744 ft | 211 kts | 167° |
| 2026-05-04 19:30 | 48.26203 | 16.51777 | 3468 ft | 200 kts | 167° |
| 2026-05-04 19:30 | 48.24892 | 16.52335 | 3218 ft | 191 kts | 167° |
| 2026-05-04 19:30 | 48.23660 | 16.52860 | 3002 ft | 177 kts | 167° |
| 2026-05-04 19:30 | 48.22510 | 16.53348 | 2755 ft | 166 kts | 167° |
| 2026-05-04 19:31 | 48.21410 | 16.53814 | 2547 ft | 165 kts | 167° |
| 2026-05-04 19:31 | 48.20351 | 16.54266 | 2333 ft | 149 kts | 166° |
| 2026-05-04 19:31 | 48.19404 | 16.54666 | 2142 ft | 138 kts | 166° |
| 2026-05-04 19:31 | 48.18525 | 16.55041 | 1972 ft | 122 kts | 166° |
| 2026-05-04 19:32 | 48.17734 | 16.55376 | 1820 ft | 118 kts | 165° |
| 2026-05-04 19:32 | 48.16953 | 16.55709 | 1668 ft | 117 kts | 165° |
| 2026-05-04 19:32 | 48.16146 | 16.56047 | 1507 ft | 123 kts | 167° |
| 2026-05-04 19:32 | 48.15339 | 16.56393 | 1357 ft | 123 kts | 165° |
| 2026-05-04 19:33 | 48.14493 | 16.56737 | 1163 ft | 128 kts | 165° |
| 2026-05-04 19:33 | 48.13641 | 16.57114 | 1000 ft | 128 kts | 162° |
| 2026-05-04 19:33 | 48.12798 | 16.57472 | 812 ft | 122 kts | 163° |
| 2026-05-04 19:33 | 48.11976 | 16.57822 | 654 ft | 124 kts | 162° |
| 2026-05-04 19:34 | 48.11197 | 16.58155 | 619 ft | 99 kts | 165° |
| 2026-05-04 19:34 | 48.10729 | 16.58352 | 617 ft | 43 kts | 164° |
| 2026-05-04 19:34 | 48.10473 | 16.58452 | 620 ft | 35 kts | 168° |
| 2026-05-04 19:34 | 48.10248 | 16.58447 | 617 ft | 32 kts | 193° |
| 2026-05-04 19:35 | 48.10096 | 16.58284 | 619 ft | 27 kts | 260° |
| 2026-05-04 19:35 | 48.10128 | 16.58185 | 622 ft | 8 kts | 335° |
| 2026-05-04 19:35 | 48.10201 | 16.58144 | 623 ft | 14 kts | 340° |
| 2026-05-04 19:35 | 48.10308 | 16.58101 | 618 ft | 18 kts | 343° |
| 2026-05-04 19:36 | 48.10435 | 16.58045 | 626 ft | 20 kts | 343° |
| 2026-05-04 19:36 | 48.10581 | 16.57989 | 621 ft | 23 kts | 344° |
| 2026-05-04 19:36 | 48.10738 | 16.57923 | 628 ft | 25 kts | 344° |
| 2026-05-04 19:36 | 48.10853 | 16.57876 | 627 ft | 27 kts | 345° |
| 2026-05-04 19:37 | 48.11104 | 16.57765 | 618 ft | 30 kts | 341° |
| 2026-05-04 19:37 | 48.11212 | 16.57550 | 615 ft | 26 kts | 298° |
| 2026-05-04 19:37 | 48.11291 | 16.57306 | 627 ft | 27 kts | 295° |
| 2026-05-04 19:37 | 48.11346 | 16.57129 | 621 ft | 28 kts | 296° |
| 2026-05-04 19:38 | 48.11384 | 16.57007 | 624 ft | 10 kts | 296° |
| 2026-05-04 19:38 | 48.11478 | 16.56869 | 616 ft | 19 kts | 0° |
| 2026-05-04 19:39 | 48.11578 | 16.56904 | 617 ft | 16 kts | 330° |
| 2026-05-04 19:39 | 48.11607 | 16.56857 | 615 ft | 8 kts | 324° |
| 2026-05-04 19:39 | 48.11655 | 16.56864 | 605 ft | 9 kts | 8° |
| 2026-05-04 19:39 | 48.11711 | 16.56878 | 603 ft | 0 kts | 11° |